Airfield :
LOGIN :

Register | Disclaimer

   EN    FR    IT 

 










Legend :    VFR   Marginal VFR   IFR   Intensive IFR   Very Intensive IFR
Visi :
Ceiling :
>= 8 km
>= 3000ft
5 to 8 km
1000 to 3000 ft
1500m to 5 km
500 to 1000 ft
800 to 1500m
200 to 500 ft
< 800m
< 200 ft
Symbols :   Thunderstorms  Fog  Heavy snow  Heavy precipitations  Wind > 20 kt
SIGMETs :     Misc.  Thunderstorms  Icing  Turbulence  Mountain Waves  Volcanic Ashes






- Airport Elevation : 74 ft
- IATA code : EIN


EHEH - Eindhoven

CURRENT METAR :
  • 282129Z AUTO VRB02KT 0700 FG BKN000 OVC130 05/05 Q1013 RED

EXPIRED METARs :
  • 282125Z AUTO 24002KT 0550 R21/0600U FG OVC130 06/06 Q1013 RED TEMPO 0200 FG RMK LVP CHARLIE
  • 282055Z AUTO 00000KT 0700 R21/0125N FG OVC000 05/05 Q1013 RED TEMPO 0200 FG RMK LVP CHARLIE
  • 282041Z AUTO 00000KT 0500 R21/0175N FG BKN000 OVC130 05/05 Q1013 RED TEMPO 0200 FG RMK LVP CHARLIE
  • 282027Z AUTO VRB01KT 0400 R21/0375D FG BKN000 OVC130 06/06 Q1013 RED TEMPO 0200 FG
  • 282007Z AUTO 00000KT 0300 R21/0400N FG FEW000 OVC120 06/06 Q1013 RED TEMPO 0200 FG
  • 281955Z AUTO 22001KT 0400 R21/0175D FG SCT000 OVC130 06/06 Q1013 RED TEMPO 0500 FG
  • 281948Z AUTO 22001KT 0450 R21/0400D FG SCT000 OVC130 06/06 Q1013 RED TEMPO 0500 FG
  • 281932Z AUTO VRB01KT 0450 R21/0450N FG OVC110 07/07 Q1012 RED TEMPO 0500 FG
  • 281912Z AUTO VRB02KT 2700 R21/1700D BR OVC110 07/07 Q1012 YLO TEMPO 0800 FG
  • 281855Z AUTO VRB02KT 1300 R21/P3000D BR SCT031 OVC120 07/07 Q1012 AMB TEMPO 0800 FG

TAF TAF EHEH
Valid from the 28 at 18:00 until the 30 at 00:00 UTC


281756Z 2818/2924 VRB02KT 4000 BR BKN010 BKN014
BECMG 2818/2821 2500 BR MIFG
TEMPO 2818/2824 0800 FG NSC
BECMG 2822/2824 1200
PROB40 2900/2912 0600 FG VV001
PROB30 2902/2910 0200 FG VV000
BECMG 2911/2913 4000 SCT015 BKN018
PROB40
TEMPO 2918/2924 0800 FG -DZ BKN002



MET'MAP, your aeronautical weather chart ! - Copyright ORBIFLY December 2007 - Disclaimer

ORBIFLY MET'MAP TEAM :

Programming & Development : Alexandra Zaïnal
Original concept : Baudouin d'Aumeries
Technical & hardware support : Manuel Goepfert
Assistance : Marc-Olivier Méhu




SOURCES & CREDITS :

   NOAA